sensor_id;sensor_type;location;lat;lon;timestamp;temperature;humidity
16513;DHT22;8369;48.030;11.598;2022-08-21T00:00:24;17.90;99.90
16513;DHT22;8369;48.030;11.598;2022-08-21T00:02:59;17.80;99.90
16513;DHT22;8369;48.030;11.598;2022-08-21T00:05:27;17.80;99.90
16513;DHT22;8369;48.030;11.598;2022-08-21T00:07:54;17.80;99.90
16513;DHT22;8369;48.030;11.598;2022-08-21T00:10:21;17.80;99.90
16513;DHT22;8369;48.030;11.598;2022-08-21T00:12:47;17.70;99.90
16513;DHT22;8369;48.030;11.598;2022-08-21T00:15:16;17.70;99.90
16513;DHT22;8369;48.030;11.598;2022-08-21T00:17:43;17.70;99.90
16513;DHT22;8369;48.030;11.598;2022-08-21T00:20:15;17.70;99.90
16513;DHT22;8369;48.030;11.598;2022-08-21T00:22:41;17.70;99.90
16513;DHT22;8369;48.030;11.598;2022-08-21T00:25:08;17.70;99.90
16513;DHT22;8369;48.030;11.598;2022-08-21T00:27:35;17.60;99.90
16513;DHT22;8369;48.030;11.598;2022-08-21T00:30:03;17.60;99.90
16513;DHT22;8369;48.030;11.598;2022-08-21T00:32:29;17.60;99.90
16513;DHT22;8369;48.030;11.598;2022-08-21T00:34:55;17.60;99.90
16513;DHT22;8369;48.030;11.598;2022-08-21T00:37:24;17.60;99.90
16513;DHT22;8369;48.030;11.598;2022-08-21T00:39:50;17.60;99.90
16513;DHT22;8369;48.030;11.598;2022-08-21T00:42:16;17.60;99.90
16513;DHT22;8369;48.030;11.598;2022-08-21T00:44:48;17.50;99.90
16513;DHT22;8369;48.030;11.598;2022-08-21T00:47:14;17.50;99.90
16513;DHT22;8369;48.030;11.598;2022-08-21T00:49:40;17.50;99.90
16513;DHT22;8369;48.030;11.598;2022-08-21T00:52:11;17.50;99.90
16513;DHT22;8369;48.030;11.598;2022-08-21T00:54:39;17.50;99.90
16513;DHT22;8369;48.030;11.598;2022-08-21T00:57:14;17.50;99.90
16513;DHT22;8369;48.030;11.598;2022-08-21T00:59:45;17.50;99.90
16513;DHT22;8369;48.030;11.598;2022-08-21T01:02:13;17.40;99.90
16513;DHT22;8369;48.030;11.598;2022-08-21T01:04:40;17.40;99.90
16513;DHT22;8369;48.030;11.598;2022-08-21T01:07:05;17.40;99.90
16513;DHT22;8369;48.030;11.598;2022-08-21T01:09:32;17.40;99.90
16513;DHT22;8369;48.030;11.598;2022-08-21T01:11:58;17.40;99.90
16513;DHT22;8369;48.030;11.598;2022-08-21T01:14:26;17.30;99.90
16513;DHT22;8369;48.030;11.598;2022-08-21T01:16:54;17.30;99.90
16513;DHT22;8369;48.030;11.598;2022-08-21T01:19:22;17.30;99.90
16513;DHT22;8369;48.030;11.598;2022-08-21T01:21:49;17.30;99.90
16513;DHT22;8369;48.030;11.598;2022-08-21T01:24:14;17.30;99.90
16513;DHT22;8369;48.030;11.598;2022-08-21T01:26:42;17.30;99.90
16513;DHT22;8369;48.030;11.598;2022-08-21T01:29:15;17.20;99.90
16513;DHT22;8369;48.030;11.598;2022-08-21T01:31:42;17.20;99.90
16513;DHT22;8369;48.030;11.598;2022-08-21T01:34:09;17.20;99.90
16513;DHT22;8369;48.030;11.598;2022-08-21T01:36:35;17.20;99.90
16513;DHT22;8369;48.030;11.598;2022-08-21T01:39:03;17.20;99.90
16513;DHT22;8369;48.030;11.598;2022-08-21T01:41:30;17.10;99.90
16513;DHT22;8369;48.030;11.598;2022-08-21T01:43:56;17.10;99.90
16513;DHT22;8369;48.030;11.598;2022-08-21T01:46:22;17.10;99.90
16513;DHT22;8369;48.030;11.598;2022-08-21T01:48:48;17.10;99.90
16513;DHT22;8369;48.030;11.598;2022-08-21T01:51:14;17.10;99.90
16513;DHT22;8369;48.030;11.598;2022-08-21T01:53:40;17.10;99.90
16513;DHT22;8369;48.030;11.598;2022-08-21T01:56:10;17.00;99.90
16513;DHT22;8369;48.030;11.598;2022-08-21T01:58:36;17.00;99.90
16513;DHT22;8369;48.030;11.598;2022-08-21T02:01:03;17.00;99.90
16513;DHT22;8369;48.030;11.598;2022-08-21T02:03:29;17.00;99.90
16513;DHT22;8369;48.030;11.598;2022-08-21T02:05:56;17.00;99.90
16513;DHT22;8369;48.030;11.598;2022-08-21T02:08:24;17.00;99.90
16513;DHT22;8369;48.030;11.598;2022-08-21T02:10:51;17.00;99.90
16513;DHT22;8369;48.030;11.598;2022-08-21T02:13:18;16.90;99.90
16513;DHT22;8369;48.030;11.598;2022-08-21T02:15:44;16.90;99.90
16513;DHT22;8369;48.030;11.598;2022-08-21T02:18:10;16.90;99.90
16513;DHT22;8369;48.030;11.598;2022-08-21T02:20:41;16.90;99.90
16513;DHT22;8369;48.030;11.598;2022-08-21T02:23:09;16.90;99.90
16513;DHT22;8369;48.030;11.598;2022-08-21T02:25:36;16.90;99.90
16513;DHT22;8369;48.030;11.598;2022-08-21T02:28:08;16.90;99.90
16513;DHT22;8369;48.030;11.598;2022-08-21T02:30:38;16.90;99.90
16513;DHT22;8369;48.030;11.598;2022-08-21T02:33:07;16.80;99.90
16513;DHT22;8369;48.030;11.598;2022-08-21T02:35:34;16.80;99.90
16513;DHT22;8369;48.030;11.598;2022-08-21T02:38:06;16.80;99.90
16513;DHT22;8369;48.030;11.598;2022-08-21T02:40:36;16.90;99.90
16513;DHT22;8369;48.030;11.598;2022-08-21T02:43:04;16.80;99.90
16513;DHT22;8369;48.030;11.598;2022-08-21T02:45:32;16.80;99.90
16513;DHT22;8369;48.030;11.598;2022-08-21T02:48:02;16.80;99.90
16513;DHT22;8369;48.030;11.598;2022-08-21T02:50:32;16.80;99.90
16513;DHT22;8369;48.030;11.598;2022-08-21T02:52:59;16.80;99.90
16513;DHT22;8369;48.030;11.598;2022-08-21T02:55:28;16.80;99.90
16513;DHT22;8369;48.030;11.598;2022-08-21T02:57:55;16.70;99.90
16513;DHT22;8369;48.030;11.598;2022-08-21T03:00:22;16.70;99.90
16513;DHT22;8369;48.030;11.598;2022-08-21T03:02:50;16.70;99.90
16513;DHT22;8369;48.030;11.598;2022-08-21T03:05:17;16.70;99.90
16513;DHT22;8369;48.030;11.598;2022-08-21T03:07:44;16.70;99.90
16513;DHT22;8369;48.030;11.598;2022-08-21T03:10:12;16.70;99.90
16513;DHT22;8369;48.030;11.598;2022-08-21T03:12:42;16.60;99.90
16513;DHT22;8369;48.030;11.598;2022-08-21T03:15:11;16.60;99.90
16513;DHT22;8369;48.030;11.598;2022-08-21T03:17:38;16.60;99.90
16513;DHT22;8369;48.030;11.598;2022-08-21T03:20:06;16.60;99.90
16513;DHT22;8369;48.030;11.598;2022-08-21T03:22:33;16.60;99.90
16513;DHT22;8369;48.030;11.598;2022-08-21T03:25:00;16.60;99.90
16513;DHT22;8369;48.030;11.598;2022-08-21T03:27:28;16.50;99.90
16513;DHT22;8369;48.030;11.598;2022-08-21T03:29:57;16.50;99.90
16513;DHT22;8369;48.030;11.598;2022-08-21T03:32:23;16.50;99.90
16513;DHT22;8369;48.030;11.598;2022-08-21T03:34:49;16.50;99.90
16513;DHT22;8369;48.030;11.598;2022-08-21T03:37:16;16.40;99.90
16513;DHT22;8369;48.030;11.598;2022-08-21T03:39:44;16.40;99.90
16513;DHT22;8369;48.030;11.598;2022-08-21T03:42:12;16.40;99.90
16513;DHT22;8369;48.030;11.598;2022-08-21T03:44:38;16.40;99.90
16513;DHT22;8369;48.030;11.598;2022-08-21T03:47:05;16.40;99.90
16513;DHT22;8369;48.030;11.598;2022-08-21T03:49:31;16.40;99.90
16513;DHT22;8369;48.030;11.598;2022-08-21T03:51:57;16.40;99.90
16513;DHT22;8369;48.030;11.598;2022-08-21T03:54:26;16.30;99.90
16513;DHT22;8369;48.030;11.598;2022-08-21T03:56:52;16.30;99.90
16513;DHT22;8369;48.030;11.598;2022-08-21T03:59:18;16.30;99.90
16513;DHT22;8369;48.030;11.598;2022-08-21T04:01:57;16.30;99.90
16513;DHT22;8369;48.030;11.598;2022-08-21T04:04:24;16.30;99.90
16513;DHT22;8369;48.030;11.598;2022-08-21T04:06:50;16.30;99.90
16513;DHT22;8369;48.030;11.598;2022-08-21T04:26:08;16.20;99.90
16513;DHT22;8369;48.030;11.598;2022-08-21T04:28:37;16.20;99.90
16513;DHT22;8369;48.030;11.598;2022-08-21T04:31:04;16.20;99.90
16513;DHT22;8369;48.030;11.598;2022-08-21T04:33:31;16.10;99.90
16513;DHT22;8369;48.030;11.598;2022-08-21T04:35:57;16.20;99.90
16513;DHT22;8369;48.030;11.598;2022-08-21T04:38:23;16.10;99.90
16513;DHT22;8369;48.030;11.598;2022-08-21T04:40:50;16.10;99.90
16513;DHT22;8369;48.030;11.598;2022-08-21T04:43:16;16.10;99.90
16513;DHT22;8369;48.030;11.598;2022-08-21T04:45:46;16.10;99.90
16513;DHT22;8369;48.030;11.598;2022-08-21T04:48:15;16.10;99.90
16513;DHT22;8369;48.030;11.598;2022-08-21T04:50:55;16.10;99.90
16513;DHT22;8369;48.030;11.598;2022-08-21T04:53:38;16.10;99.90
16513;DHT22;8369;48.030;11.598;2022-08-21T04:56:08;16.10;99.90
16513;DHT22;8369;48.030;11.598;2022-08-21T04:58:37;16.10;99.90
16513;DHT22;8369;48.030;11.598;2022-08-21T05:01:06;16.10;99.90
16513;DHT22;8369;48.030;11.598;2022-08-21T05:03:34;16.10;99.90
16513;DHT22;8369;48.030;11.598;2022-08-21T05:06:07;16.10;99.90
16513;DHT22;8369;48.030;11.598;2022-08-21T05:08:37;16.10;99.90
16513;DHT22;8369;48.030;11.598;2022-08-21T05:11:04;16.10;99.90
16513;DHT22;8369;48.030;11.598;2022-08-21T05:13:30;16.10;99.90
16513;DHT22;8369;48.030;11.598;2022-08-21T05:15:57;16.10;99.90
16513;DHT22;8369;48.030;11.598;2022-08-21T05:18:24;16.20;99.90
16513;DHT22;8369;48.030;11.598;2022-08-21T05:20:51;16.20;99.90
16513;DHT22;8369;48.030;11.598;2022-08-21T05:23:17;16.20;99.90
16513;DHT22;8369;48.030;11.598;2022-08-21T05:25:46;16.20;99.90
16513;DHT22;8369;48.030;11.598;2022-08-21T05:28:12;16.30;99.90
16513;DHT22;8369;48.030;11.598;2022-08-21T05:30:39;16.30;99.90
16513;DHT22;8369;48.030;11.598;2022-08-21T05:33:07;16.30;99.90
16513;DHT22;8369;48.030;11.598;2022-08-21T05:35:34;16.40;99.90
16513;DHT22;8369;48.030;11.598;2022-08-21T05:38:01;16.40;99.90
16513;DHT22;8369;48.030;11.598;2022-08-21T05:40:27;16.50;99.90
16513;DHT22;8369;48.030;11.598;2022-08-21T05:42:54;16.50;99.90
16513;DHT22;8369;48.030;11.598;2022-08-21T05:45:28;16.50;99.90
16513;DHT22;8369;48.030;11.598;2022-08-21T05:47:55;16.60;99.90
16513;DHT22;8369;48.030;11.598;2022-08-21T05:50:20;16.60;99.90
16513;DHT22;8369;48.030;11.598;2022-08-21T05:52:46;16.70;99.90
16513;DHT22;8369;48.030;11.598;2022-08-21T05:55:13;16.70;99.90
16513;DHT22;8369;48.030;11.598;2022-08-21T05:57:40;16.80;99.90
16513;DHT22;8369;48.030;11.598;2022-08-21T06:00:09;16.80;99.90
16513;DHT22;8369;48.030;11.598;2022-08-21T06:02:39;16.90;99.90
16513;DHT22;8369;48.030;11.598;2022-08-21T06:05:05;16.90;99.90
16513;DHT22;8369;48.030;11.598;2022-08-21T06:07:31;17.00;99.90
16513;DHT22;8369;48.030;11.598;2022-08-21T06:09:57;17.00;99.90
16513;DHT22;8369;48.030;11.598;2022-08-21T06:12:23;17.10;99.90
16513;DHT22;8369;48.030;11.598;2022-08-21T06:14:51;17.20;99.90
16513;DHT22;8369;48.030;11.598;2022-08-21T06:17:18;17.20;99.90
16513;DHT22;8369;48.030;11.598;2022-08-21T06:19:44;17.30;99.90
16513;DHT22;8369;48.030;11.598;2022-08-21T06:22:10;17.30;99.90
16513;DHT22;8369;48.030;11.598;2022-08-21T06:24:36;17.50;99.90
16513;DHT22;8369;48.030;11.598;2022-08-21T06:27:05;17.60;99.90
16513;DHT22;8369;48.030;11.598;2022-08-21T06:29:32;17.70;99.90
16513;DHT22;8369;48.030;11.598;2022-08-21T06:31:58;17.80;99.90
16513;DHT22;8369;48.030;11.598;2022-08-21T06:34:25;17.80;99.90
16513;DHT22;8369;48.030;11.598;2022-08-21T06:36:50;17.90;99.90
16513;DHT22;8369;48.030;11.598;2022-08-21T06:39:16;17.90;99.90
16513;DHT22;8369;48.030;11.598;2022-08-21T06:41:43;18.00;99.90
16513;DHT22;8369;48.030;11.598;2022-08-21T06:44:09;18.10;99.90
16513;DHT22;8369;48.030;11.598;2022-08-21T06:46:35;18.20;99.90
16513;DHT22;8369;48.030;11.598;2022-08-21T06:49:02;18.20;99.90
16513;DHT22;8369;48.030;11.598;2022-08-21T06:51:28;18.20;99.90
16513;DHT22;8369;48.030;11.598;2022-08-21T06:53:56;18.30;99.90
16513;DHT22;8369;48.030;11.598;2022-08-21T06:56:23;18.50;99.90
16513;DHT22;8369;48.030;11.598;2022-08-21T06:58:49;18.60;99.90
16513;DHT22;8369;48.030;11.598;2022-08-21T07:01:15;18.70;99.90
16513;DHT22;8369;48.030;11.598;2022-08-21T07:03:42;18.80;99.90
16513;DHT22;8369;48.030;11.598;2022-08-21T07:06:10;18.90;99.90
16513;DHT22;8369;48.030;11.598;2022-08-21T07:08:36;19.10;99.90
16513;DHT22;8369;48.030;11.598;2022-08-21T07:11:07;19.20;99.90
16513;DHT22;8369;48.030;11.598;2022-08-21T07:13:35;19.20;99.90
16513;DHT22;8369;48.030;11.598;2022-08-21T07:16:01;19.30;99.90
16513;DHT22;8369;48.030;11.598;2022-08-21T07:18:27;19.40;99.90
16513;DHT22;8369;48.030;11.598;2022-08-21T07:20:56;19.40;99.90
16513;DHT22;8369;48.030;11.598;2022-08-21T07:23:26;19.40;99.90
16513;DHT22;8369;48.030;11.598;2022-08-21T07:25:53;19.50;99.90
16513;DHT22;8369;48.030;11.598;2022-08-21T07:28:19;19.50;99.90
16513;DHT22;8369;48.030;11.598;2022-08-21T07:30:46;19.60;99.90
16513;DHT22;8369;48.030;11.598;2022-08-21T07:33:19;19.60;99.90
16513;DHT22;8369;48.030;11.598;2022-08-21T07:35:45;19.70;99.90
16513;DHT22;8369;48.030;11.598;2022-08-21T07:38:11;19.60;99.90
16513;DHT22;8369;48.030;11.598;2022-08-21T07:40:37;19.60;99.90
16513;DHT22;8369;48.030;11.598;2022-08-21T07:43:03;19.70;99.90
16513;DHT22;8369;48.030;11.598;2022-08-21T07:45:32;19.60;99.90
16513;DHT22;8369;48.030;11.598;2022-08-21T07:47:58;19.60;99.90
16513;DHT22;8369;48.030;11.598;2022-08-21T07:50:25;19.70;99.90
16513;DHT22;8369;48.030;11.598;2022-08-21T07:52:51;19.80;99.90
16513;DHT22;8369;48.030;11.598;2022-08-21T07:55:19;19.90;99.90
16513;DHT22;8369;48.030;11.598;2022-08-21T07:57:46;20.00;99.90
16513;DHT22;8369;48.030;11.598;2022-08-21T08:00:15;20.10;99.90
16513;DHT22;8369;48.030;11.598;2022-08-21T08:02:44;20.10;99.90
16513;DHT22;8369;48.030;11.598;2022-08-21T08:05:11;20.30;99.90
16513;DHT22;8369;48.030;11.598;2022-08-21T08:07:38;20.30;99.90
16513;DHT22;8369;48.030;11.598;2022-08-21T08:10:06;20.40;99.90
16513;DHT22;8369;48.030;11.598;2022-08-21T08:12:34;20.40;99.90
16513;DHT22;8369;48.030;11.598;2022-08-21T08:15:00;20.50;99.90
16513;DHT22;8369;48.030;11.598;2022-08-21T08:17:26;20.60;99.90
16513;DHT22;8369;48.030;11.598;2022-08-21T08:19:53;20.70;99.90
16513;DHT22;8369;48.030;11.598;2022-08-21T08:22:21;20.80;99.90
16513;DHT22;8369;48.030;11.598;2022-08-21T08:24:51;20.90;99.90
16513;DHT22;8369;48.030;11.598;2022-08-21T08:27:17;20.90;99.90
16513;DHT22;8369;48.030;11.598;2022-08-21T08:29:44;21.00;99.90
16513;DHT22;8369;48.030;11.598;2022-08-21T08:32:10;21.10;99.90
16513;DHT22;8369;48.030;11.598;2022-08-21T08:34:37;21.10;99.90
16513;DHT22;8369;48.030;11.598;2022-08-21T08:37:04;21.20;99.90
16513;DHT22;8369;48.030;11.598;2022-08-21T08:39:31;21.30;99.90
16513;DHT22;8369;48.030;11.598;2022-08-21T08:44:36;21.50;99.90
16513;DHT22;8369;48.030;11.598;2022-08-21T08:47:04;21.50;99.90
16513;DHT22;8369;48.030;11.598;2022-08-21T08:49:47;21.60;99.90
16513;DHT22;8369;48.030;11.598;2022-08-21T08:55:04;21.70;99.50
16513;DHT22;8369;48.030;11.598;2022-08-21T08:57:32;21.80;99.90
16513;DHT22;8369;48.030;11.598;2022-08-21T09:00:08;21.80;99.90
16513;DHT22;8369;48.030;11.598;2022-08-21T09:02:39;21.90;99.90
16513;DHT22;8369;48.030;11.598;2022-08-21T09:05:07;22.00;99.10
16513;DHT22;8369;48.030;11.598;2022-08-21T09:13:24;22.20;97.10
16513;DHT22;8369;48.030;11.598;2022-08-21T09:16:35;22.20;97.70
16513;DHT22;8369;48.030;11.598;2022-08-21T09:21:53;22.10;96.90
16513;DHT22;8369;48.030;11.598;2022-08-21T09:24:45;22.00;95.80
16513;DHT22;8369;48.030;11.598;2022-08-21T09:27:15;22.00;96.90
16513;DHT22;8369;48.030;11.598;2022-08-21T09:29:47;22.10;96.70
16513;DHT22;8369;48.030;11.598;2022-08-21T09:32:20;22.20;93.60
16513;DHT22;8369;48.030;11.598;2022-08-21T09:37:25;22.20;92.90
16513;DHT22;8369;48.030;11.598;2022-08-21T09:39:51;22.20;94.30
16513;DHT22;8369;48.030;11.598;2022-08-21T09:42:31;22.30;93.80
16513;DHT22;8369;48.030;11.598;2022-08-21T09:45:14;22.30;90.70
16513;DHT22;8369;48.030;11.598;2022-08-21T09:47:44;22.50;91.80
16513;DHT22;8369;48.030;11.598;2022-08-21T09:50:17;22.60;92.70
16513;DHT22;8369;48.030;11.598;2022-08-21T09:52:50;22.70;92.20
16513;DHT22;8369;48.030;11.598;2022-08-21T09:55:31;22.80;92.80
16513;DHT22;8369;48.030;11.598;2022-08-21T09:58:17;23.00;92.10
16513;DHT22;8369;48.030;11.598;2022-08-21T10:00:43;23.20;92.60
16513;DHT22;8369;48.030;11.598;2022-08-21T10:03:20;23.40;92.90
16513;DHT22;8369;48.030;11.598;2022-08-21T10:05:58;23.50;93.20
16513;DHT22;8369;48.030;11.598;2022-08-21T10:08:25;23.50;93.10
16513;DHT22;8369;48.030;11.598;2022-08-21T10:10:55;23.50;92.70
16513;DHT22;8369;48.030;11.598;2022-08-21T10:13:27;23.50;92.90
16513;DHT22;8369;48.030;11.598;2022-08-21T10:27:21;22.70;93.50
16513;DHT22;8369;48.030;11.598;2022-08-21T10:33:07;22.60;92.90
16513;DHT22;8369;48.030;11.598;2022-08-21T10:48:59;23.70;91.20
16513;DHT22;8369;48.030;11.598;2022-08-21T10:52:02;23.90;90.80
16513;DHT22;8369;48.030;11.598;2022-08-21T11:00:22;23.70;87.60
16513;DHT22;8369;48.030;11.598;2022-08-21T11:03:11;23.60;84.70
16513;DHT22;8369;48.030;11.598;2022-08-21T11:05:52;23.50;84.80
16513;DHT22;8369;48.030;11.598;2022-08-21T11:08:28;23.40;86.30
16513;DHT22;8369;48.030;11.598;2022-08-21T11:13:42;23.30;85.60
16513;DHT22;8369;48.030;11.598;2022-08-21T11:16:23;23.40;86.30
16513;DHT22;8369;48.030;11.598;2022-08-21T11:18:55;23.50;83.90
16513;DHT22;8369;48.030;11.598;2022-08-21T11:24:12;23.40;87.10
16513;DHT22;8369;48.030;11.598;2022-08-21T11:26:47;23.30;89.80
16513;DHT22;8369;48.030;11.598;2022-08-21T11:29:21;23.20;90.90
16513;DHT22;8369;48.030;11.598;2022-08-21T11:34:47;23.00;93.20
16513;DHT22;8369;48.030;11.598;2022-08-21T11:46:07;22.90;92.20
16513;DHT22;8369;48.030;11.598;2022-08-21T11:48:47;23.00;90.00
16513;DHT22;8369;48.030;11.598;2022-08-21T11:51:31;23.00;90.40
16513;DHT22;8369;48.030;11.598;2022-08-21T11:57:17;23.00;86.20
16513;DHT22;8369;48.030;11.598;2022-08-21T12:02:53;22.90;86.20
16513;DHT22;8369;48.030;11.598;2022-08-21T12:05:30;22.80;85.90
16513;DHT22;8369;48.030;11.598;2022-08-21T12:08:09;22.80;86.20
16513;DHT22;8369;48.030;11.598;2022-08-21T12:10:58;22.80;85.60
16513;DHT22;8369;48.030;11.598;2022-08-21T12:13:30;22.70;86.50
16513;DHT22;8369;48.030;11.598;2022-08-21T12:16:15;22.70;87.40
16513;DHT22;8369;48.030;11.598;2022-08-21T12:18:42;22.70;88.90
16513;DHT22;8369;48.030;11.598;2022-08-21T12:21:22;22.60;90.00
16513;DHT22;8369;48.030;11.598;2022-08-21T12:23:57;22.60;90.70
16513;DHT22;8369;48.030;11.598;2022-08-21T12:26:28;22.80;91.00
16513;DHT22;8369;48.030;11.598;2022-08-21T12:29:12;22.90;88.80
16513;DHT22;8369;48.030;11.598;2022-08-21T12:32:00;23.00;85.10
16513;DHT22;8369;48.030;11.598;2022-08-21T12:34:34;23.10;86.80
16513;DHT22;8369;48.030;11.598;2022-08-21T12:37:09;23.20;86.90
16513;DHT22;8369;48.030;11.598;2022-08-21T12:39:38;23.20;84.50
16513;DHT22;8369;48.030;11.598;2022-08-21T12:45:00;23.10;84.80
16513;DHT22;8369;48.030;11.598;2022-08-21T12:47:36;23.10;83.90
16513;DHT22;8369;48.030;11.598;2022-08-21T12:50:13;23.10;85.30
16513;DHT22;8369;48.030;11.598;2022-08-21T12:52:58;23.10;86.30
16513;DHT22;8369;48.030;11.598;2022-08-21T12:55:28;23.20;86.20
16513;DHT22;8369;48.030;11.598;2022-08-21T12:57:54;23.40;86.20
16513;DHT22;8369;48.030;11.598;2022-08-21T13:00:25;23.50;85.40
16513;DHT22;8369;48.030;11.598;2022-08-21T13:02:53;23.60;77.60
16513;DHT22;8369;48.030;11.598;2022-08-21T13:05:33;23.70;79.10
16513;DHT22;8369;48.030;11.598;2022-08-21T13:08:04;23.80;81.00
16513;DHT22;8369;48.030;11.598;2022-08-21T13:10:32;23.90;80.00
16513;DHT22;8369;48.030;11.598;2022-08-21T13:13:04;24.10;78.50
16513;DHT22;8369;48.030;11.598;2022-08-21T13:15:33;24.10;78.80
16513;DHT22;8369;48.030;11.598;2022-08-21T13:18:02;24.20;77.40
16513;DHT22;8369;48.030;11.598;2022-08-21T13:20:37;24.30;78.10
16513;DHT22;8369;48.030;11.598;2022-08-21T13:23:21;24.40;74.30
16513;DHT22;8369;48.030;11.598;2022-08-21T13:25:48;24.50;77.80
16513;DHT22;8369;48.030;11.598;2022-08-21T13:28:15;24.60;76.70
16513;DHT22;8369;48.030;11.598;2022-08-21T13:30:46;24.70;76.40
16513;DHT22;8369;48.030;11.598;2022-08-21T13:33:15;24.60;72.60
16513;DHT22;8369;48.030;11.598;2022-08-21T13:35:52;24.60;74.70
16513;DHT22;8369;48.030;11.598;2022-08-21T13:38:27;24.60;76.70
16513;DHT22;8369;48.030;11.598;2022-08-21T13:43:46;24.90;75.80
16513;DHT22;8369;48.030;11.598;2022-08-21T13:46:15;25.00;74.40
16513;DHT22;8369;48.030;11.598;2022-08-21T13:48:45;25.10;74.30
16513;DHT22;8369;48.030;11.598;2022-08-21T13:51:11;25.10;72.60
16513;DHT22;8369;48.030;11.598;2022-08-21T13:56:07;25.20;73.60
16513;DHT22;8369;48.030;11.598;2022-08-21T13:58:45;25.20;71.70
16513;DHT22;8369;48.030;11.598;2022-08-21T14:04:25;25.20;73.90
16513;DHT22;8369;48.030;11.598;2022-08-21T14:06:51;25.30;75.20
16513;DHT22;8369;48.030;11.598;2022-08-21T14:11:57;25.30;75.30
16513;DHT22;8369;48.030;11.598;2022-08-21T14:14:26;25.20;76.50
16513;DHT22;8369;48.030;11.598;2022-08-21T14:17:06;25.20;75.60
16513;DHT22;8369;48.030;11.598;2022-08-21T14:19:40;25.20;75.50
16513;DHT22;8369;48.030;11.598;2022-08-21T14:25:03;25.10;75.20
16513;DHT22;8369;48.030;11.598;2022-08-21T14:27:30;25.00;75.80
16513;DHT22;8369;48.030;11.598;2022-08-21T14:30:04;25.00;74.30
16513;DHT22;8369;48.030;11.598;2022-08-21T14:32:39;24.90;73.20
16513;DHT22;8369;48.030;11.598;2022-08-21T14:35:06;24.80;73.90
16513;DHT22;8369;48.030;11.598;2022-08-21T14:37:33;24.70;75.50
16513;DHT22;8369;48.030;11.598;2022-08-21T14:39:59;24.50;76.70
16513;DHT22;8369;48.030;11.598;2022-08-21T14:42:25;24.40;77.10
16513;DHT22;8369;48.030;11.598;2022-08-21T14:44:53;24.40;75.30
16513;DHT22;8369;48.030;11.598;2022-08-21T14:47:22;24.30;76.20
16513;DHT22;8369;48.030;11.598;2022-08-21T14:49:51;24.20;77.00
16513;DHT22;8369;48.030;11.598;2022-08-21T14:52:20;24.10;76.50
16513;DHT22;8369;48.030;11.598;2022-08-21T14:54:46;24.00;77.00
16513;DHT22;8369;48.030;11.598;2022-08-21T14:57:12;24.00;78.50
16513;DHT22;8369;48.030;11.598;2022-08-21T14:59:39;23.90;79.10
16513;DHT22;8369;48.030;11.598;2022-08-21T15:02:06;23.80;76.70
16513;DHT22;8369;48.030;11.598;2022-08-21T15:04:33;23.70;77.40
16513;DHT22;8369;48.030;11.598;2022-08-21T15:06:59;23.60;76.70
16513;DHT22;8369;48.030;11.598;2022-08-21T15:09:25;23.60;78.20
16513;DHT22;8369;48.030;11.598;2022-08-21T15:11:53;23.60;77.00
16513;DHT22;8369;48.030;11.598;2022-08-21T15:14:23;23.50;77.00
16513;DHT22;8369;48.030;11.598;2022-08-21T15:16:51;23.50;77.80
16513;DHT22;8369;48.030;11.598;2022-08-21T15:19:17;23.50;77.90
16513;DHT22;8369;48.030;11.598;2022-08-21T15:21:44;23.50;78.80
16513;DHT22;8369;48.030;11.598;2022-08-21T15:24:10;23.50;79.70
16513;DHT22;8369;48.030;11.598;2022-08-21T15:26:36;23.50;79.10
16513;DHT22;8369;48.030;11.598;2022-08-21T15:29:03;23.40;77.60
16513;DHT22;8369;48.030;11.598;2022-08-21T15:31:31;23.40;79.00
16513;DHT22;8369;48.030;11.598;2022-08-21T15:33:56;23.40;78.40
16513;DHT22;8369;48.030;11.598;2022-08-21T15:36:22;23.30;78.20
16513;DHT22;8369;48.030;11.598;2022-08-21T15:38:48;23.30;78.20
16513;DHT22;8369;48.030;11.598;2022-08-21T15:41:14;23.40;78.50
16513;DHT22;8369;48.030;11.598;2022-08-21T15:43:46;23.40;76.40
16513;DHT22;8369;48.030;11.598;2022-08-21T15:46:14;23.50;77.40
16513;DHT22;8369;48.030;11.598;2022-08-21T15:48:41;23.60;78.10
16513;DHT22;8369;48.030;11.598;2022-08-21T15:51:11;23.70;77.90
16513;DHT22;8369;48.030;11.598;2022-08-21T15:53:38;23.70;75.90
16513;DHT22;8369;48.030;11.598;2022-08-21T15:56:27;23.80;76.70
16513;DHT22;8369;48.030;11.598;2022-08-21T15:58:59;23.90;76.40
16513;DHT22;8369;48.030;11.598;2022-08-21T16:01:25;24.00;74.90
16513;DHT22;8369;48.030;11.598;2022-08-21T16:03:55;24.10;74.60
16513;DHT22;8369;48.030;11.598;2022-08-21T16:06:21;24.20;74.60
16513;DHT22;8369;48.030;11.598;2022-08-21T16:08:47;24.20;72.90
16513;DHT22;8369;48.030;11.598;2022-08-21T16:11:15;24.30;72.40
16513;DHT22;8369;48.030;11.598;2022-08-21T16:13:44;24.30;73.00
16513;DHT22;8369;48.030;11.598;2022-08-21T16:16:14;24.30;72.90
16513;DHT22;8369;48.030;11.598;2022-08-21T16:18:41;24.30;73.00
16513;DHT22;8369;48.030;11.598;2022-08-21T16:21:07;24.30;72.40
16513;DHT22;8369;48.030;11.598;2022-08-21T16:23:35;24.30;72.40
16513;DHT22;8369;48.030;11.598;2022-08-21T16:26:05;24.30;73.00
16513;DHT22;8369;48.030;11.598;2022-08-21T16:28:35;24.40;72.60
16513;DHT22;8369;48.030;11.598;2022-08-21T16:31:02;24.40;71.40
16513;DHT22;8369;48.030;11.598;2022-08-21T16:33:45;24.40;71.10
16513;DHT22;8369;48.030;11.598;2022-08-21T16:36:12;24.40;70.40
16513;DHT22;8369;48.030;11.598;2022-08-21T16:38:39;24.30;70.40
16513;DHT22;8369;48.030;11.598;2022-08-21T16:41:13;24.20;69.50
16513;DHT22;8369;48.030;11.598;2022-08-21T16:43:42;24.10;68.50
16513;DHT22;8369;48.030;11.598;2022-08-21T16:46:10;24.10;69.80
16513;DHT22;8369;48.030;11.598;2022-08-21T16:48:37;24.00;70.40
16513;DHT22;8369;48.030;11.598;2022-08-21T16:51:04;24.00;70.00
16513;DHT22;8369;48.030;11.598;2022-08-21T16:53:34;23.90;70.40
16513;DHT22;8369;48.030;11.598;2022-08-21T16:56:00;23.90;70.90
16513;DHT22;8369;48.030;11.598;2022-08-21T16:58:32;23.80;71.40
16513;DHT22;8369;48.030;11.598;2022-08-21T17:00:59;23.80;70.60
16513;DHT22;8369;48.030;11.598;2022-08-21T17:03:31;23.70;70.30
16513;DHT22;8369;48.030;11.598;2022-08-21T17:05:59;23.60;71.20
16513;DHT22;8369;48.030;11.598;2022-08-21T17:08:25;23.60;72.30
16513;DHT22;8369;48.030;11.598;2022-08-21T17:10:53;23.50;72.10
16513;DHT22;8369;48.030;11.598;2022-08-21T17:13:19;23.50;70.90
16513;DHT22;8369;48.030;11.598;2022-08-21T17:15:45;23.40;72.10
16513;DHT22;8369;48.030;11.598;2022-08-21T17:18:17;23.40;72.70
16513;DHT22;8369;48.030;11.598;2022-08-21T17:20:44;23.30;72.70
16513;DHT22;8369;48.030;11.598;2022-08-21T17:23:10;23.20;71.80
16513;DHT22;8369;48.030;11.598;2022-08-21T17:25:38;23.20;72.60
16513;DHT22;8369;48.030;11.598;2022-08-21T17:28:07;23.10;73.30
16513;DHT22;8369;48.030;11.598;2022-08-21T17:30:35;23.00;74.70